createdAt,value
2023-02-20T00:52:48.842Z,24.01
2023-02-20T01:06:47.855Z,24.05
2023-02-20T01:08:47.854Z,24.04
2023-02-20T01:15:47.869Z,24.04
2023-02-20T01:16:47.907Z,24.02
2023-02-20T01:17:47.948Z,24.02
2023-02-20T01:18:48.018Z,24.02
2023-02-20T01:19:48.060Z,24.01
2023-02-20T01:20:48.094Z,24.04
2023-02-20T01:21:48.131Z,24.02
2023-02-20T01:22:48.184Z,24.04
2023-02-20T01:23:48.248Z,24.02
2023-02-20T01:24:48.289Z,24.02
2023-02-20T01:25:48.340Z,24.00
2023-02-20T01:26:48.388Z,24.01
2023-02-20T01:27:48.457Z,24.01
2023-02-20T01:28:48.540Z,24.02
2023-02-20T01:29:48.607Z,24.01
2023-02-20T01:30:48.671Z,24.01
2023-02-20T01:31:49.467Z,24.00
2023-02-20T01:32:48.804Z,24.00
2023-02-20T01:33:48.865Z,24.00
2023-02-20T01:34:48.908Z,24.01
2023-02-20T01:35:48.958Z,23.97
2023-02-20T01:36:49.004Z,23.98
2023-02-20T01:37:49.112Z,24.00
2023-02-20T01:38:49.104Z,23.98
2023-02-20T01:39:49.153Z,23.98
2023-02-20T01:40:49.175Z,23.97
2023-02-20T01:41:49.215Z,24.01
2023-02-20T01:42:49.238Z,24.01
2023-02-20T01:43:49.279Z,24.00
2023-02-20T01:44:49.318Z,24.00
2023-02-20T01:45:49.345Z,23.97
2023-02-20T01:46:49.554Z,24.00
2023-02-20T01:47:49.448Z,23.97
2023-02-20T01:48:49.489Z,24.01
2023-02-20T01:49:49.524Z,24.00
2023-02-20T01:50:49.573Z,24.00
2023-02-20T01:51:49.612Z,24.01
2023-02-20T01:52:49.666Z,23.97
2023-02-20T01:53:49.725Z,24.00
2023-02-20T01:54:49.775Z,24.00
2023-02-20T01:55:49.826Z,24.01
2023-02-20T01:56:49.890Z,24.01
2023-02-20T01:57:49.924Z,24.01
2023-02-20T01:58:50.881Z,24.01
2023-02-20T01:59:50.031Z,23.98
2023-02-20T02:00:50.148Z,23.98
2023-02-20T02:01:50.145Z,24.01
2023-02-20T02:02:50.164Z,23.98
2023-02-20T02:03:50.205Z,23.97
2023-02-20T02:04:50.247Z,23.98
2023-02-20T02:05:50.270Z,23.95
2023-02-20T02:06:50.352Z,23.97
2023-02-20T02:07:50.403Z,23.98
2023-02-20T02:08:50.393Z,23.95
2023-02-20T02:09:50.427Z,23.98
2023-02-20T02:10:50.453Z,23.95
2023-02-20T02:11:51.378Z,23.97
2023-02-20T02:12:50.515Z,23.95
2023-02-20T02:13:50.545Z,23.95
2023-02-20T02:14:50.601Z,23.94
2023-02-20T02:15:50.651Z,23.95
2023-02-20T02:16:50.677Z,23.95
2023-02-20T02:17:50.707Z,23.95
2023-02-20T02:18:50.715Z,23.95
2023-02-20T02:19:50.756Z,23.97
2023-02-20T02:20:50.778Z,24.00
2023-02-20T02:21:50.800Z,23.98
2023-02-20T02:22:50.830Z,24.00
2023-02-20T02:23:50.875Z,23.98
2023-02-20T02:24:50.894Z,23.98
2023-02-20T02:25:50.927Z,24.00
2023-02-20T02:26:51.871Z,24.00
2023-02-20T02:27:50.988Z,24.00
2023-02-20T02:28:51.018Z,24.00
2023-02-20T02:29:51.059Z,23.98
2023-02-20T02:30:51.050Z,23.98
2023-02-20T02:31:51.129Z,24.00
2023-02-20T02:32:51.054Z,24.01
2023-02-20T02:33:51.076Z,23.98
2023-02-20T02:34:51.086Z,24.00
2023-02-20T02:35:51.116Z,24.04
2023-02-20T02:36:51.110Z,24.01
2023-02-20T02:37:51.115Z,24.01
2023-02-20T02:38:51.139Z,24.02
2023-02-20T02:39:51.156Z,24.02
2023-02-20T02:40:51.185Z,24.05
2023-02-20T02:41:51.250Z,24.04
2023-02-20T02:42:51.191Z,24.04
2023-02-20T02:43:51.217Z,24.05
2023-02-20T02:44:51.220Z,24.02
2023-02-20T02:45:51.314Z,24.01
2023-02-20T02:46:51.255Z,24.02
2023-02-20T02:47:51.282Z,24.04
2023-02-20T02:48:51.280Z,24.02
2023-02-20T02:49:51.311Z,24.01
2023-02-20T02:50:51.326Z,24.01
2023-02-20T02:51:51.328Z,24.01
2023-02-20T02:52:51.344Z,24.00
2023-02-20T02:53:51.366Z,24.00
2023-02-20T02:54:51.424Z,24.01
2023-02-20T02:55:51.412Z,24.00
2023-02-20T02:56:51.428Z,24.00
2023-02-20T02:57:51.465Z,23.98
2023-02-20T02:58:51.463Z,24.02
2023-02-20T02:59:51.476Z,24.00
2023-02-20T03:00:51.525Z,24.01
2023-02-20T03:01:51.519Z,23.98
2023-02-20T03:02:51.562Z,24.00
2023-02-20T03:03:51.556Z,24.00
2023-02-20T03:04:51.572Z,24.00
2023-02-20T03:05:51.694Z,23.97
2023-02-20T03:06:51.603Z,23.95
2023-02-20T03:07:51.622Z,23.98
2023-02-20T03:08:51.640Z,23.97
2023-02-20T03:09:51.652Z,23.95
2023-02-20T03:10:51.673Z,23.98
2023-02-20T03:11:51.684Z,23.98
2023-02-20T03:12:51.706Z,23.98
2023-02-20T03:13:51.741Z,23.95
2023-02-20T03:14:51.742Z,23.95
2023-02-20T03:15:51.767Z,23.97
2023-02-20T03:16:51.876Z,23.97
2023-02-20T03:17:51.787Z,23.95
2023-02-20T03:18:51.810Z,23.97
2023-02-20T06:28:54.852Z,23.91
2023-02-20T06:29:55.529Z,23.88
2023-02-20T06:30:54.851Z,23.92
2023-02-20T07:26:56.982Z,24.42
2023-02-20T07:27:57.032Z,24.44
2023-02-20T07:31:57.349Z,23.85
2023-02-20T07:32:57.378Z,23.64
2023-02-20T07:33:57.449Z,23.52
2023-02-20T07:35:04.464Z,23.39
2023-02-20T07:35:58.425Z,23.26
2023-02-20T07:36:57.421Z,23.12
2023-02-20T07:37:57.447Z,22.99
2023-02-20T07:39:57.496Z,22.74
2023-02-20T07:40:57.501Z,22.70
2023-02-20T07:41:57.519Z,22.60
2023-02-20T07:42:57.539Z,22.56
2023-02-20T07:43:58.488Z,22.54
2023-02-20T07:44:57.604Z,22.53
2023-02-20T07:45:57.735Z,22.56
2023-02-20T07:46:57.694Z,22.67
2023-02-20T07:47:57.656Z,22.71
2023-02-20T07:48:57.675Z,22.81
2023-02-20T07:49:57.700Z,22.87
2023-02-20T07:50:57.713Z,22.95
2023-02-20T07:51:57.753Z,23.05
2023-02-20T07:52:57.828Z,23.12
2023-02-20T07:53:57.900Z,23.21
2023-02-20T07:54:57.980Z,23.30
2023-02-20T07:55:58.065Z,23.34
2023-02-20T07:56:58.125Z,23.38
2023-02-20T07:57:58.405Z,23.47
2023-02-20T07:59:00.608Z,23.49
2023-02-20T07:59:58.458Z,23.53
2023-02-20T08:00:58.518Z,23.58
2023-02-20T08:01:58.610Z,23.58
2023-02-20T08:02:58.630Z,23.61
2023-02-20T08:03:58.701Z,23.60
2023-02-20T08:04:58.867Z,23.57
2023-02-20T08:05:58.859Z,23.54
2023-02-20T08:06:58.927Z,23.54
2023-02-20T08:07:59.013Z,23.54
2023-02-20T08:08:59.121Z,23.50
2023-02-20T08:09:59.188Z,23.52
2023-02-20T08:11:08.397Z,23.53
2023-02-20T08:12:00.291Z,23.57
2023-02-20T08:12:59.299Z,23.60
2023-02-20T08:13:59.313Z,23.61
2023-02-20T08:14:59.327Z,23.67
2023-02-20T08:15:59.390Z,23.73
2023-02-20T08:16:59.357Z,23.78
2023-02-20T08:17:59.373Z,23.83
2023-02-20T08:18:59.385Z,23.84
2023-02-20T08:19:59.389Z,23.85
2023-02-20T08:20:59.418Z,23.92
2023-02-20T08:21:59.963Z,23.97
2023-02-20T08:24:00.991Z,24.02
2023-02-20T08:24:59.453Z,24.09
2023-02-20T08:25:59.469Z,24.12
2023-02-20T08:26:59.475Z,24.18
2023-02-20T08:27:59.561Z,24.19
2023-02-20T08:28:59.605Z,24.23
2023-02-20T08:30:59.722Z,24.28
2023-02-20T08:31:59.860Z,24.30
2023-02-20T08:32:59.749Z,24.32
2023-02-20T08:34:59.745Z,24.32
2023-02-20T08:35:59.801Z,24.38
2023-02-20T08:36:59.739Z,24.38
2023-02-20T08:38:00.783Z,24.35
2023-02-20T08:38:59.754Z,24.39
2023-02-20T11:00:06.561Z,25.04
2023-02-20T11:03:06.575Z,25.08
2023-02-20T11:05:06.566Z,25.15
2023-02-20T11:38:07.074Z,25.09
2023-02-20T12:18:06.585Z,24.87
2023-02-20T12:29:06.587Z,24.77
2023-02-20T12:50:06.260Z,24.66
2023-02-20T12:51:06.285Z,24.66
2023-02-20T12:52:06.323Z,24.66
2023-02-20T12:53:07.101Z,24.66
2023-02-20T12:54:06.390Z,24.64
2023-02-20T12:55:06.608Z,24.64
2023-02-20T12:56:11.339Z,24.64
2023-02-20T12:57:08.126Z,24.66
2023-02-20T12:58:06.511Z,24.63
2023-02-20T12:59:06.484Z,24.66
2023-02-20T13:00:06.569Z,24.64
2023-02-20T13:01:06.559Z,24.63
2023-02-20T13:02:06.541Z,24.63
2023-02-20T13:03:06.470Z,24.63
2023-02-20T13:04:06.464Z,24.63
2023-02-20T13:05:06.473Z,24.62
2023-02-20T13:06:06.465Z,24.62
2023-02-20T13:07:06.458Z,24.57
2023-02-20T13:08:06.458Z,24.59
2023-02-20T13:09:06.517Z,24.59
2023-02-20T13:10:06.554Z,24.59
2023-02-20T13:11:06.584Z,24.57
2023-02-20T13:12:06.702Z,24.56
2023-02-20T13:13:06.664Z,24.59
2023-02-20T13:14:06.720Z,24.56
2023-02-20T13:15:06.774Z,24.57
2023-02-20T13:16:06.820Z,24.55
2023-02-20T13:17:07.132Z,24.57
2023-02-20T13:18:06.890Z,24.57
2023-02-20T13:19:06.944Z,24.55
2023-02-20T13:20:07.005Z,24.50
2023-02-20T13:21:07.075Z,24.47
2023-02-20T13:22:07.122Z,24.44
2023-02-20T13:23:07.181Z,24.43
2023-02-20T13:24:07.237Z,24.42
2023-02-20T13:25:07.300Z,24.42
2023-02-20T13:26:07.355Z,24.42
2023-02-20T13:27:07.418Z,24.42
2023-02-20T13:28:07.550Z,24.42
2023-02-20T13:29:07.531Z,24.43
2023-02-20T13:30:07.622Z,24.46
2023-02-20T13:31:07.640Z,24.43
2023-02-20T13:32:07.830Z,24.47
2023-02-20T13:33:07.744Z,24.49
2023-02-20T13:34:08.616Z,24.47
2023-02-20T13:35:07.862Z,24.52
2023-02-20T13:36:07.929Z,24.52
2023-02-20T13:37:07.970Z,24.53
2023-02-20T13:38:08.022Z,24.53
2023-02-20T13:39:08.643Z,24.55
2023-02-20T13:40:08.107Z,24.55
2023-02-20T13:41:08.169Z,24.52
2023-02-20T13:42:10.358Z,24.53
2023-02-20T13:43:08.268Z,24.53
2023-02-20T13:44:08.314Z,24.55
2023-02-20T13:45:09.119Z,24.56
2023-02-20T13:46:08.500Z,24.57
2023-02-20T13:47:10.558Z,24.56
2023-02-20T13:48:09.466Z,24.56
2023-02-20T13:49:08.456Z,24.57
2023-02-20T13:50:08.456Z,24.57
2023-02-20T13:51:08.464Z,24.57
2023-02-20T13:52:08.476Z,24.60
2023-02-20T13:53:08.497Z,24.57
2023-02-20T13:54:08.464Z,24.59
2023-02-20T13:55:08.451Z,24.56
2023-02-20T13:56:08.471Z,24.57
2023-02-20T13:57:08.572Z,24.57
2023-02-20T13:58:08.480Z,24.57
2023-02-20T13:59:08.536Z,24.60
2023-02-20T14:00:09.140Z,24.59
2023-02-20T14:01:08.661Z,24.59
2023-02-20T14:02:08.689Z,24.56
2023-02-20T14:03:08.757Z,24.60
2023-02-20T14:04:08.842Z,24.59
2023-02-20T14:05:08.837Z,24.60
2023-02-20T14:06:08.898Z,24.62
2023-02-20T14:07:09.001Z,24.62
2023-02-20T14:08:09.008Z,24.60
2023-02-20T14:09:09.047Z,24.60
2023-02-20T14:10:11.487Z,24.57
2023-02-20T14:11:09.166Z,24.59
2023-02-20T14:12:09.214Z,24.57
2023-02-20T14:13:09.285Z,24.57
2023-02-20T14:14:09.314Z,24.57
2023-02-20T14:15:10.189Z,24.60
2023-02-20T14:16:09.442Z,24.60
2023-02-20T14:17:09.477Z,24.62
2023-02-20T14:18:09.509Z,24.59
2023-02-20T14:19:09.553Z,24.57
2023-02-20T14:20:14.637Z,24.59
2023-02-20T14:21:10.682Z,24.60
2023-02-20T14:22:09.620Z,24.60
2023-02-20T14:23:09.636Z,24.60
2023-02-20T14:24:09.630Z,24.60
2023-02-20T14:25:09.623Z,24.62
2023-02-20T14:26:09.636Z,24.63
2023-02-20T14:27:09.637Z,24.62
2023-02-20T14:28:09.721Z,24.60
2023-02-20T14:29:09.639Z,24.62
2023-02-20T14:30:10.154Z,24.62
2023-02-20T14:31:09.630Z,24.60
2023-02-20T14:32:09.717Z,24.63
2023-02-20T14:33:09.697Z,24.62
2023-02-20T14:34:09.761Z,24.62
2023-02-20T14:35:09.807Z,24.62
2023-02-20T14:36:09.871Z,24.62
2023-02-20T14:37:10.863Z,24.63
2023-02-20T14:38:09.865Z,24.64
2023-02-20T14:39:10.634Z,24.63
2023-02-20T14:40:09.877Z,24.64
2023-02-20T14:41:09.867Z,24.63
2023-02-20T14:42:09.880Z,24.64
2023-02-20T14:43:09.892Z,24.62
2023-02-20T14:44:09.888Z,24.64
2023-02-20T14:45:09.906Z,24.62
2023-02-20T14:46:10.805Z,24.63
2023-02-20T14:47:09.884Z,24.64
2023-02-20T14:48:09.898Z,24.63
2023-02-20T14:49:09.948Z,24.63
2023-02-20T14:50:09.991Z,24.63
2023-02-20T14:51:10.047Z,24.63
2023-02-20T14:52:10.093Z,24.63
2023-02-20T14:53:10.650Z,24.62
2023-02-20T14:54:10.235Z,24.66
2023-02-20T14:55:10.233Z,24.62
2023-02-20T14:56:10.306Z,24.62
2023-02-20T14:57:10.338Z,24.63
2023-02-20T14:58:10.393Z,24.64
2023-02-20T14:59:10.436Z,24.64
2023-02-20T15:00:10.472Z,24.63
2023-02-20T15:01:10.563Z,24.62
2023-02-20T15:02:11.175Z,24.64
2023-02-20T15:03:24.437Z,24.64
2023-02-20T15:04:11.633Z,24.63
2023-02-20T15:05:10.640Z,24.62
2023-02-20T15:06:10.645Z,24.63
2023-02-20T15:07:10.644Z,24.62
2023-02-20T15:08:10.668Z,24.62
2023-02-20T15:09:22.030Z,24.63
2023-02-20T15:10:11.664Z,24.60
2023-02-20T15:11:10.682Z,24.63
2023-02-20T15:12:10.677Z,24.62
2023-02-20T15:13:10.687Z,24.63
2023-02-20T15:14:10.700Z,24.62
2023-02-20T15:15:10.705Z,24.62
2023-02-20T15:16:10.738Z,24.63
2023-02-20T15:17:10.709Z,24.59
2023-02-20T15:18:10.714Z,24.62
2023-02-20T15:19:10.717Z,24.60
2023-02-20T15:20:10.756Z,24.63
2023-02-20T15:21:10.730Z,24.60
2023-02-20T15:22:10.837Z,24.60
2023-02-20T15:23:15.521Z,24.60
2023-02-20T15:24:11.854Z,24.62
2023-02-20T15:25:10.847Z,24.60
2023-02-20T15:26:10.932Z,24.60
2023-02-20T15:27:10.866Z,24.60
2023-02-20T15:28:10.884Z,24.59
2023-02-20T15:29:10.891Z,24.60
2023-02-20T15:30:10.943Z,24.56
2023-02-20T15:31:10.976Z,24.57
2023-02-20T15:32:10.908Z,24.57
2023-02-20T15:33:10.904Z,24.59
2023-02-20T15:34:10.908Z,24.59
2023-02-20T15:35:10.914Z,24.55
2023-02-20T15:36:10.951Z,24.55
2023-02-20T15:38:11.042Z,24.56
2023-02-20T15:39:11.097Z,24.56
2023-02-20T15:40:11.153Z,24.56
2023-02-20T15:41:11.741Z,24.56
2023-02-20T15:42:11.303Z,24.56
2023-02-20T15:43:29.713Z,24.56
2023-02-20T15:44:12.320Z,24.55
2023-02-20T15:45:11.334Z,24.53
2023-02-20T15:46:11.479Z,24.53
2023-02-20T15:47:11.342Z,24.53
2023-02-20T15:48:11.361Z,24.52
2023-02-20T15:49:19.334Z,24.55
2023-02-20T15:50:12.342Z,24.53
2023-02-20T15:51:11.601Z,24.52
2023-02-20T15:52:11.353Z,24.52
2023-02-20T15:53:11.505Z,24.50
2023-02-20T15:54:11.385Z,24.52
2023-02-20T15:55:11.371Z,24.52
2023-02-20T15:56:11.679Z,24.49
2023-02-20T15:57:11.378Z,24.46
2023-02-20T15:58:20.695Z,24.49
2023-02-20T15:59:12.414Z,24.49
2023-02-20T16:00:11.381Z,24.49
2023-02-20T16:01:11.440Z,24.47
2023-02-20T16:02:11.410Z,24.47
2023-02-20T16:03:11.405Z,24.47
2023-02-20T16:04:11.408Z,24.46
2023-02-20T16:05:11.413Z,24.47
2023-02-20T16:06:11.717Z,24.49
2023-02-20T16:07:11.403Z,24.47
2023-02-20T16:08:11.407Z,24.46
2023-02-20T16:09:11.469Z,24.47
2023-02-20T16:10:11.532Z,24.46
2023-02-20T16:11:11.820Z,24.47
2023-02-20T16:12:11.652Z,24.47
2023-02-20T16:13:11.709Z,24.49
2023-02-20T16:14:11.766Z,24.47
2023-02-20T16:15:11.820Z,24.46
2023-02-20T16:16:18.389Z,24.44
2023-02-20T16:17:12.890Z,24.46
2023-02-20T16:18:11.891Z,24.47
2023-02-20T16:19:11.900Z,24.44
2023-02-20T16:20:11.957Z,24.44
2023-02-20T16:21:11.938Z,24.43
2023-02-20T16:22:11.936Z,24.43
2023-02-20T16:23:11.924Z,24.43
2023-02-20T16:24:11.933Z,24.42
2023-02-20T16:25:11.936Z,24.44
2023-02-20T16:26:12.496Z,24.43
2023-02-20T16:27:23.174Z,24.44
2023-02-20T16:28:13.015Z,24.47
2023-02-20T16:29:12.031Z,24.44
2023-02-20T16:30:16.274Z,24.44
2023-02-20T16:31:13.155Z,24.42
2023-02-20T16:32:12.213Z,24.43
2023-02-20T16:33:12.036Z,24.42
2023-02-20T16:34:21.443Z,24.42
2023-02-20T16:35:13.053Z,24.42
2023-02-20T16:36:20.032Z,24.43
2023-02-20T16:37:13.053Z,24.40
2023-02-20T16:38:12.045Z,24.42
2023-02-20T16:39:14.731Z,24.39
2023-02-20T16:40:13.066Z,24.39
2023-02-20T16:41:12.530Z,24.38
2023-02-20T16:42:12.085Z,24.38
2023-02-20T16:43:12.069Z,24.42
2023-02-20T16:44:12.072Z,24.40
2023-02-20T16:45:12.165Z,24.36
2023-02-20T16:46:12.500Z,24.36
2023-02-20T16:47:12.118Z,24.36
2023-02-20T16:48:12.084Z,24.40
2023-02-20T16:49:12.152Z,24.35
2023-02-20T16:50:12.214Z,24.36
2023-02-20T16:51:12.292Z,24.38
2023-02-20T16:52:12.363Z,24.35
2023-02-20T16:53:12.452Z,24.35
2023-02-20T16:54:12.504Z,24.38
2023-02-20T16:55:12.584Z,24.35
2023-02-20T16:56:13.046Z,24.35
2023-02-20T16:57:12.740Z,24.36
2023-02-20T16:58:12.878Z,24.36
2023-02-20T16:59:12.940Z,24.35
2023-02-20T17:00:12.954Z,24.33
2023-02-20T17:01:13.546Z,24.33
2023-02-20T17:02:13.095Z,24.33
2023-02-20T17:03:13.173Z,24.30
2023-02-20T17:04:13.240Z,24.33
2023-02-20T17:05:13.374Z,24.32
2023-02-20T17:06:13.388Z,24.33
2023-02-20T17:07:13.470Z,24.30
2023-02-20T17:08:13.536Z,24.32
2023-02-20T17:09:13.602Z,24.30
2023-02-20T17:10:13.676Z,24.32
2023-02-20T17:11:13.963Z,24.29
2023-02-20T17:12:13.819Z,24.32
2023-02-20T17:13:13.894Z,24.29
2023-02-20T17:14:13.957Z,24.30
2023-02-20T17:15:14.033Z,24.29
2023-02-20T17:16:19.378Z,24.29
2023-02-20T17:18:14.120Z,24.26
2023-02-20T17:19:14.122Z,24.28
2023-02-20T17:20:14.135Z,24.29
2023-02-20T17:21:14.446Z,24.26
2023-02-20T17:22:14.142Z,24.29
2023-02-20T17:23:14.145Z,24.26
2023-02-20T17:24:14.184Z,24.26
2023-02-20T17:25:14.259Z,24.25
2023-02-20T17:26:14.334Z,24.26
2023-02-20T17:27:14.455Z,24.26
2023-02-20T17:28:14.458Z,24.25
2023-02-20T17:29:14.533Z,24.25
2023-02-20T17:31:15.111Z,24.26
2023-02-20T17:32:14.769Z,24.22
2023-02-20T17:34:14.851Z,24.23
2023-02-20T18:02:16.230Z,24.18
2023-02-20T18:03:16.267Z,24.16
2023-02-20T18:04:16.311Z,24.18
2023-02-20T18:05:16.364Z,24.18
2023-02-20T18:06:16.441Z,24.15
2023-02-20T18:07:16.475Z,24.16
2023-02-20T18:08:16.553Z,24.13
2023-02-20T18:09:16.608Z,24.13
2023-02-20T18:10:16.630Z,24.13
2023-02-20T18:11:16.656Z,24.13
2023-02-20T18:12:16.743Z,24.15
2023-02-20T18:13:16.728Z,24.12
2023-02-20T18:14:18.779Z,24.13
2023-02-20T18:15:16.798Z,24.12
2023-02-20T18:16:17.162Z,24.12
2023-02-20T18:17:16.769Z,24.13
2023-02-20T18:18:16.823Z,24.13
2023-02-20T18:19:16.785Z,24.13
2023-02-20T18:20:16.792Z,24.12
2023-02-20T18:21:16.804Z,24.13
2023-02-20T18:22:16.786Z,24.12
2023-02-20T18:23:16.799Z,24.12
2023-02-20T18:24:16.807Z,24.11
2023-02-20T18:25:16.827Z,24.12
2023-02-20T18:26:16.818Z,24.12
2023-02-20T18:27:16.840Z,24.09
2023-02-20T18:28:16.947Z,24.11
2023-02-20T18:29:16.853Z,24.11
2023-02-20T18:30:16.883Z,24.09
2023-02-20T18:31:17.301Z,24.12
2023-02-20T18:32:16.979Z,24.08
2023-02-20T18:33:16.967Z,24.09
2023-02-20T18:34:17.722Z,24.09
2023-02-20T18:35:16.900Z,24.08
2023-02-20T18:36:16.907Z,24.08
2023-02-20T18:37:16.915Z,24.07
2023-02-20T18:38:16.931Z,24.08
2023-02-20T18:39:16.934Z,24.08
2023-02-20T18:40:16.943Z,24.08
2023-02-20T18:41:16.968Z,24.08
2023-02-20T18:42:16.959Z,24.08
2023-02-20T18:43:16.972Z,24.09
2023-02-20T18:44:16.978Z,24.07
2023-02-20T18:45:16.997Z,24.08
2023-02-20T18:46:17.391Z,24.07
2023-02-20T18:47:17.828Z,24.07
2023-02-20T18:48:17.019Z,24.05
2023-02-20T18:49:17.016Z,24.08
2023-02-20T18:50:17.034Z,24.05
2023-02-20T18:51:17.022Z,24.05
2023-02-20T18:52:17.030Z,24.07
2023-02-20T18:53:17.045Z,24.04
2023-02-20T18:54:17.032Z,24.07
2023-02-20T18:55:17.068Z,24.04
2023-02-20T18:56:17.061Z,24.07
2023-02-20T18:57:17.059Z,24.04
2023-02-20T18:58:17.065Z,24.05
2023-02-20T18:59:17.057Z,24.04
2023-02-20T19:00:17.076Z,24.05
2023-02-20T19:01:17.303Z,24.05
2023-02-20T19:02:17.114Z,24.05
2023-02-20T19:04:17.074Z,24.02
2023-02-20T19:05:17.071Z,24.02
2023-02-20T19:06:17.093Z,24.02
2023-02-20T19:07:17.734Z,24.04
2023-02-20T19:08:17.087Z,24.04
2023-02-20T19:09:17.081Z,24.01
2023-02-20T19:10:17.089Z,24.02
2023-02-20T19:11:17.096Z,24.02
2023-02-20T19:13:17.104Z,24.02
2023-02-20T19:14:17.262Z,24.02
2023-02-20T19:15:17.092Z,24.02
2023-02-20T19:20:17.119Z,24.00
2023-02-20T19:25:17.185Z,24.01
2023-02-20T19:26:17.330Z,24.01
2023-02-20T19:27:17.170Z,24.01
2023-02-20T19:28:17.180Z,23.98
2023-02-20T19:29:17.208Z,24.04
2023-02-20T19:30:17.231Z,23.98
2023-02-20T19:31:17.574Z,23.98
2023-02-20T20:10:17.431Z,23.92
2023-02-20T20:15:17.429Z,23.91
2023-02-20T20:16:17.431Z,23.91
2023-02-20T20:17:17.774Z,23.92
2023-02-20T20:18:17.442Z,23.88
2023-02-20T20:19:17.461Z,23.89
2023-02-20T20:20:17.555Z,23.91
2023-02-20T20:21:17.475Z,23.91
2023-02-20T20:22:17.488Z,23.89
2023-02-20T20:23:17.496Z,23.91
2023-02-20T20:24:17.493Z,23.91
2023-02-20T20:25:17.499Z,23.92
2023-02-20T20:26:17.498Z,23.88
2023-02-20T20:27:17.514Z,23.89
2023-02-20T20:28:17.501Z,23.89
2023-02-20T20:29:17.522Z,23.89
2023-02-20T20:30:17.596Z,23.89
2023-02-20T20:31:17.696Z,23.91
2023-02-20T20:32:17.634Z,23.88
2023-02-20T20:33:18.784Z,23.89
2023-02-20T20:34:17.623Z,23.89
2023-02-20T20:35:17.639Z,23.89
2023-02-20T20:36:17.674Z,23.88
2023-02-20T20:37:17.686Z,23.85
2023-02-20T20:38:17.708Z,23.88
2023-02-20T20:39:17.731Z,23.88
2023-02-20T20:40:17.754Z,23.85
2023-02-20T20:41:17.770Z,23.87
2023-02-20T20:42:17.814Z,23.87
2023-02-20T20:43:17.839Z,23.88
2023-02-20T20:44:17.848Z,23.89
2023-02-20T20:45:17.867Z,23.87
2023-02-20T20:46:17.947Z,23.88
2023-02-20T20:47:17.976Z,23.84
2023-02-20T20:48:17.951Z,23.87
2023-02-20T20:49:17.970Z,23.85
2023-02-20T20:50:17.986Z,23.85
2023-02-20T20:51:18.007Z,23.85
2023-02-20T20:52:18.039Z,23.85
2023-02-20T20:53:18.052Z,23.85
2023-02-20T20:54:18.083Z,23.85
2023-02-20T20:55:18.107Z,23.84
2023-02-20T20:56:18.127Z,23.84
2023-02-20T20:57:18.153Z,23.87
2023-02-20T20:58:18.170Z,23.85
2023-02-20T20:59:18.259Z,23.85
2023-02-20T21:00:18.210Z,23.87
2023-02-20T21:01:18.247Z,23.84
2023-02-20T21:02:18.259Z,23.85
2023-02-20T21:03:18.287Z,23.85
2023-02-20T21:04:18.315Z,23.84
2023-02-20T21:05:18.403Z,23.87
2023-02-20T21:06:18.386Z,23.85
2023-02-20T21:07:18.388Z,23.85
2023-02-20T21:08:18.406Z,23.84
2023-02-20T21:09:18.434Z,23.85
2023-02-20T21:10:18.456Z,23.84
2023-02-20T21:11:18.535Z,23.83
2023-02-20T21:12:18.504Z,23.84
2023-02-20T21:13:18.523Z,23.87
2023-02-20T21:14:18.547Z,23.84
2023-02-20T21:15:18.563Z,23.84
2023-02-20T21:16:18.598Z,23.84
2023-02-20T21:17:18.621Z,23.84
2023-02-20T21:18:18.631Z,23.84
2023-02-20T21:19:18.657Z,23.84
2023-02-20T21:20:18.672Z,23.83
2023-02-20T21:21:18.702Z,23.87
2023-02-20T21:22:18.723Z,23.85
2023-02-20T21:23:18.744Z,23.83
2023-02-20T21:24:18.771Z,23.83
2023-02-20T21:25:18.796Z,23.84
2023-02-20T21:26:18.829Z,23.84
2023-02-20T21:27:19.796Z,23.83
2023-02-20T21:28:18.855Z,23.84
2023-02-20T21:29:18.881Z,23.81
2023-02-20T21:30:18.941Z,23.84
2023-02-20T21:31:18.958Z,23.83
2023-02-20T21:32:19.787Z,23.81
2023-02-20T21:33:18.975Z,23.85
2023-02-20T21:34:19.009Z,23.83
2023-02-20T21:35:19.024Z,23.80
2023-02-20T21:36:19.048Z,23.83
2023-02-20T21:37:19.086Z,23.83
2023-02-20T21:38:19.096Z,23.84
2023-02-20T21:39:19.131Z,23.81
2023-02-20T21:40:19.150Z,23.80
2023-02-20T21:41:19.197Z,23.81
2023-02-20T21:42:19.203Z,23.83
2023-02-20T21:43:19.231Z,23.80
2023-02-20T21:44:19.249Z,23.81
2023-02-20T21:45:19.277Z,23.83
2023-02-20T21:46:19.346Z,23.81
2023-02-20T21:47:19.340Z,23.78
2023-02-20T21:48:20.303Z,23.80
2023-02-20T21:49:19.386Z,23.78
2023-02-20T21:50:19.417Z,23.80
2023-02-20T21:51:19.457Z,23.80
2023-02-20T21:52:19.486Z,23.81
2023-02-20T21:53:19.519Z,23.78
2023-02-20T21:54:19.560Z,23.81
2023-02-20T21:55:19.596Z,23.81
2023-02-20T21:56:19.617Z,23.81
2023-02-20T21:57:19.661Z,23.81
2023-02-20T21:58:19.673Z,23.78
2023-02-20T21:59:19.705Z,23.80
2023-02-20T22:00:19.786Z,23.78
2023-02-20T22:01:19.797Z,23.78
2023-02-20T22:02:19.812Z,23.81
2023-02-20T22:03:19.832Z,23.80
2023-02-20T22:04:19.909Z,23.81
2023-02-20T22:05:19.891Z,23.78
2023-02-20T22:06:19.998Z,23.80
2023-02-20T22:07:19.968Z,23.75
2023-02-20T22:08:19.984Z,23.81
2023-02-20T22:09:20.017Z,23.78
2023-02-20T22:10:20.060Z,23.80
2023-02-20T22:11:20.088Z,23.81
2023-02-20T22:12:20.172Z,23.80
2023-02-20T22:13:20.141Z,23.80
2023-02-20T22:14:20.210Z,23.80
2023-02-20T22:15:20.194Z,23.78
2023-02-20T22:16:20.258Z,23.80
2023-02-20T22:17:20.255Z,23.78
2023-02-20T22:18:20.284Z,23.80
2023-02-20T22:19:20.305Z,23.81
2023-02-20T22:20:20.328Z,23.80
2023-02-20T22:22:20.438Z,23.81
2023-02-20T22:23:20.438Z,23.80
2023-02-20T22:24:27.339Z,23.80
2023-02-20T22:25:21.495Z,23.81
2023-02-20T22:26:20.495Z,23.77
2023-02-20T22:27:20.529Z,23.78
2023-02-20T22:28:20.514Z,23.78
2023-02-20T22:29:20.586Z,23.78
2023-02-20T22:30:20.665Z,23.78
2023-02-20T22:31:20.644Z,23.78
2023-02-20T22:32:20.633Z,23.77
2023-02-20T22:33:20.595Z,23.78
2023-02-20T22:34:20.630Z,23.77
2023-02-20T22:35:20.583Z,23.78
2023-02-20T22:36:20.602Z,23.78
2023-02-20T22:37:20.601Z,23.77
2023-02-20T22:38:21.342Z,23.77
2023-02-20T22:48:20.688Z,23.77
2023-02-20T22:49:20.702Z,23.78
2023-02-20T22:50:20.723Z,23.77
2023-02-20T22:51:20.711Z,23.77
2023-02-20T22:52:20.724Z,23.74
2023-02-20T22:53:20.729Z,23.74
2023-02-20T22:54:20.749Z,23.75
2023-02-20T22:55:20.746Z,23.75
2023-02-20T22:56:20.758Z,23.75
2023-02-20T22:57:20.757Z,23.75
2023-02-20T22:58:20.764Z,23.74
2023-02-20T23:00:21.334Z,23.75
2023-02-20T23:01:20.790Z,23.74
2023-02-20T23:02:20.801Z,23.75
2023-02-20T23:03:20.794Z,23.73
2023-02-20T23:04:20.798Z,23.74
2023-02-20T23:05:20.801Z,23.75
2023-02-20T23:06:20.808Z,23.73
2023-02-20T23:07:20.836Z,23.74
2023-02-20T23:08:20.824Z,23.74
2023-02-20T23:09:20.839Z,23.74
2023-02-20T23:10:20.845Z,23.73
2023-02-20T23:11:21.342Z,23.74
2023-02-20T23:12:20.863Z,23.73
2023-02-20T23:25:21.056Z,23.74
